Date,TemperatureHighF,TemperatureAvgF,TemperatureLowF,DewpointHighF,DewpointAvgF,DewpointLowF,HumidityHigh,HumidityAvg,HumidityLow,PressureMaxIn,PressureMinIn,WindSpeedMaxMPH,WindSpeedAvgMPH,GustSpeedMaxMPH,PrecipitationSumIn
2013-1-31,65.5,64.2,63.5,-14.7,-14.7,-14.7,10,10,10,30.37,30.36,5,4,6,0.00
2013-2-4,52.9,52.1,51.6,11.1,8.9,1.3,22,20,16,30.13,30.12,14,13,14,0.00
2013-2-7,73.8,72.4,72.0,-0.5,-0.5,-0.5,13,13,13,30.23,30.22,16,10,17,0.00
2013-2-11,52.7,50.0,47.8,-2.3,-4.4,-6.1,10,10,10,30.34,30.34,5,4,7,0.00
2013-2-14,52.9,51.5,50.7,-2.4,-3.2,-4.1,10,10,10,30.40,30.38,22,12,22,0.00
2013-2-18,50.0,49.5,49.1,-4.5,-4.8,-5.8,10,10,10,29.88,29.87,22,21,22,0.00
2013-2-19,48.6,48.6,48.6,-5.5,-5.5,-5.5,10,10,10,29.88,29.88,20,20,21,0.00
2013-2-22,34.0,33.1,32.4,15.7,15.2,13.9,48,47,46,29.82,29.81,17,15,20,0.00
2013-2-26,47.5,44.5,43.5,-6.6,-8.6,-9.4,10,10,10,29.73,29.71,5,4,5,0.00
2013-3-2,37.6,36.2,34.7,-7.7,-10.1,-12.7,15,13,11,30.19,30.15,15,9,15,0.00
2013-3-5,57.2,55.8,55.2,1.0,0.1,-0.4,10,10,10,30.45,30.44,15,8,15,0.37
2013-3-6,71.6,59.9,48.9,12.2,3.2,-5.4,10,10,10,30.38,30.13,32,21,32,0.00
2013-3-7,76.1,56.5,40.3,30.0,2.6,-12.0,33,12,10,30.17,30.01,28,14,29,0.00
2013-3-8,85.5,68.0,55.9,44.6,27.2,12.8,47,25,10,30.11,29.87,41,12,41,0.05
2013-3-9,70.0,61.1,52.2,42.5,14.4,-3.1,49,18,10,30.04,29.84,46,23,46,0.00
2013-3-10,60.4,50.8,41.9,7.3,-0.6,-7.9,23,12,10,30.28,30.04,28,12,28,0.00
2013-3-11,72.9,56.1,38.5,13.2,0.3,-13.6,10,10,10,30.28,30.05,31,12,34,0.00
2013-3-12,73.0,59.7,51.3,12.9,3.1,-3.4,10,10,10,30.40,30.10,25,14,25,0.00
2013-3-13,75.6,57.9,43.7,15.2,3.6,-6.6,17,11,10,30.50,30.27,24,12,24,0.00
2013-3-14,86.7,66.1,43.2,23.7,11.1,-3.1,28,12,10,30.36,30.20,22,10,22,0.01
2013-3-15,91.4,71.0,50.5,26.6,16.8,3.0,28,14,10,30.25,29.98,24,10,24,0.00
2013-3-16,90.3,74.6,59.2,26.2,14.5,2.7,10,10,10,30.02,29.80,36,14,36,0.00
2013-3-17,85.5,67.9,49.6,30.4,18.7,1.9,47,18,10,30.04,29.78,40,12,40,0.01
2013-3-18,85.8,70.7,59.0,22.9,11.5,2.5,10,10,10,30.10,29.89,30,12,30,0.00
2013-3-19,83.3,68.5,53.1,21.2,10.6,-2.0,24,10,10,30.22,29.96,41,15,41,0.00
2013-3-20,66.6,56.8,43.3,29.4,20.8,11.1,50,27,12,30.41,30.04,33,13,36,0.00
2013-3-21,86.4,67.7,47.1,33.6,23.7,10.8,48,24,10,30.04,29.70,48,18,48,0.00
2013-3-22,81.7,68.7,58.8,19.6,10.9,2.3,18,11,10,29.93,29.78,24,14,24,0.00
2013-3-23,79.0,65.2,49.1,31.3,19.5,-4.0,48,21,10,30.12,29.79,48,23,48,1.20
2013-3-24,57.9,43.7,28.0,4.1,-4.9,-15.8,26,13,10,30.39,30.11,27,10,27,0.00
2013-3-25,55.9,44.4,31.1,0.1,-8.6,-18.3,12,10,10,30.42,30.18,34,19,34,0.00
2013-3-26,73.2,51.4,33.3,13.4,-3.1,-16.8,13,10,10,30.42,30.16,29,19,29,0.00
2013-3-27,85.5,62.3,43.7,31.6,12.6,-4.4,34,16,10,30.21,30.03,26,13,26,0.00
2013-3-28,93.4,68.5,50.0,44.3,25.2,-4.4,49,24,10,30.18,30.05,29,11,29,0.00
2013-3-29,95.5,71.3,53.8,46.0,26.2,-1.5,50,22,10,30.19,30.03,26,10,26,0.00
2013-3-30,93.6,72.2,55.4,47.9,17.6,-6.2,51,14,10,30.16,29.99,42,8,42,0.01
2013-3-31,93.0,78.0,67.1,28.5,17.3,9.4,16,10,10,30.17,30.02,34,11,34,0.00
2013-4-1,105.8,75.1,54.3,40.5,30.4,18.2,48,23,10,30.14,29.91,33,13,33,0.01
2013-4-2,71.1,58.0,46.2,44.4,34.1,25.1,50,41,28,30.16,29.95,30,14,30,0.00
2013-4-3,74.7,53.5,42.3,26.8,20.2,8.1,47,31,10,30.27,30.15,17,9,19,0.00
2013-4-4,88.7,61.2,35.8,26.1,13.6,-15.5,50,19,10,30.37,30.17,21,10,21,0.00
2013-4-5,92.1,70.7,49.8,29.0,18.6,2.5,33,15,10,30.25,29.96,33,17,33,0.00
2013-4-6,93.7,75.2,53.6,30.1,24.3,13.0,39,18,10,30.05,29.91,30,14,31,0.00
2013-4-7,94.5,76.8,58.5,29.0,16.2,1.4,10,10,10,29.99,29.81,35,14,35,0.00
2013-4-8,98.1,77.8,59.7,74.7,17.7,2.7,64,11,10,29.87,29.60,39,16,39,0.00
2013-4-9,94.5,73.2,56.8,46.8,22.4,-0.2,46,18,10,29.95,29.61,41,20,41,0.00
2013-4-10,75.2,53.7,35.8,18.8,3.2,-9.5,47,13,10,30.18,29.95,30,13,30,0.00
2013-4-11,82.0,60.2,41.2,20.4,9.1,-8.6,42,15,10,30.07,29.88,29,12,30,0.26
2013-4-12,103.3,72.1,46.2,36.0,12.5,-7.3,10,10,10,30.00,29.84,23,10,23,0.00
2013-4-13,79.0,66.7,56.7,44.6,32.6,6.5,49,31,10,29.97,29.82,24,16,25,0.00
2013-4-14,92.8,74.3,53.8,32.9,19.2,-1.1,42,14,10,29.86,29.72,49,19,49,0.02
2013-4-15,86.2,75.3,65.1,23.3,15.0,7.2,10,10,10,29.91,29.79,24,15,24,0.00
2013-4-16,111.2,84.5,64.2,47.2,23.4,6.3,34,11,10,29.96,29.80,27,8,27,0.00
2013-4-17,98.1,86.0,61.9,51.8,35.3,8.2,48,21,10,29.88,29.67,25,17,25,0.00
2013-4-18,98.1,98.1,98.1,32.3,32.3,32.3,10,10,10,30.17,29.88,25,25,25,0.00
2013-4-20,88.5,86.5,85.6,24.8,23.5,22.3,10,10,10,29.99,29.86,31,20,33,0.00
2013-4-21,86.4,86.4,86.4,23.4,23.4,23.4,10,10,10,30.17,29.99,18,18,21,0.00
2013-4-22,86.4,86.4,86.4,23.4,23.4,23.4,10,10,10,30.09,29.86,18,18,21,0.00
2013-4-23,86.4,57.0,47.8,24.7,24.4,23.4,40,33,10,30.28,29.90,24,23,24,0.19
2013-4-24,47.8,47.8,47.8,24.7,24.7,24.7,40,40,40,30.44,30.21,24,24,24,0.00
2013-4-25,85.6,61.6,47.8,29.1,19.9,6.7,40,24,10,30.33,29.98,39,26,39,0.00
2013-4-26,94.6,67.8,63.7,29.4,27.4,15.6,27,23,10,30.18,30.06,30,26,30,0.00
2013-4-27,96.1,75.1,57.0,30.8,17.9,4.8,22,12,10,30.28,30.07,43,18,43,2.10
2013-4-28,109.4,77.4,71.1,39.1,17.3,11.8,15,10,10,30.13,29.94,40,16,40,0.00
2013-4-29,106.0,80.1,57.0,38.0,28.9,17.3,48,19,10,30.03,29.81,25,13,25,0.00
2013-4-30,78.3,70.7,70.3,29.9,28.0,17.3,22,20,10,29.89,29.74,23,21,24,0.00
2013-5-1,79.5,70.8,70.3,28.6,27.6,13.4,21,20,10,30.17,29.83,40,22,40,0.00
2013-5-2,75.9,57.2,40.5,24.5,9.4,-11.8,50,17,10,30.62,30.18,39,24,39,12.62
2013-5-3,81.1,58.1,38.8,19.5,8.7,-2.6,29,15,10,30.60,30.15,14,7,16,0.00
2013-5-4,88.9,66.4,63.5,25.4,8.2,6.0,10,10,10,30.17,30.00,24,11,24,0.00
2013-5-5,86.9,69.4,53.4,23.4,10.5,-1.8,10,10,10,30.28,30.10,30,18,31,0.00
2013-5-6,95.2,72.7,62.6,29.0,13.3,5.2,20,10,10,30.17,30.00,21,16,22,0.00
2013-5-7,108.7,77.2,58.1,39.4,24.0,12.6,45,16,10,30.12,29.95,23,13,23,0.00
2013-5-8,96.1,77.4,61.0,47.9,23.8,3.9,48,16,10,30.08,29.94,25,16,26,0.00
2013-5-9,90.9,83.1,70.0,26.9,20.9,11.0,10,10,10,30.09,29.94,24,13,24,0.00
2013-5-10,90.9,90.9,90.9,26.9,26.9,26.9,10,10,10,30.27,30.01,18,18,18,0.00
2013-5-11,90.9,73.7,55.8,42.1,27.4,14.5,52,23,10,30.34,30.24,29,13,29,0.00
2013-5-12,79.7,79.7,79.7,18.4,18.4,18.4,10,10,10,30.38,30.22,17,17,17,0.00
2013-5-13,80.6,79.8,79.7,19.1,18.5,18.4,10,10,10,30.35,30.17,18,18,18,0.00
2013-5-14,80.6,80.6,80.6,19.1,19.1,19.1,10,10,10,30.25,30.02,18,18,18,0.00
2013-5-15,80.6,80.6,80.6,19.1,19.1,19.1,10,10,10,30.12,29.86,18,18,18,0.00
2013-5-16,80.6,80.6,80.6,19.1,19.1,19.1,10,10,10,30.00,29.85,18,18,18,0.00
2013-5-17,80.6,80.6,80.6,19.1,19.1,19.1,10,10,10,30.02,29.85,18,18,18,0.00
2013-5-18,80.6,80.6,80.6,19.1,19.1,19.1,10,10,10,30.00,29.85,18,18,18,0.00
2013-5-19,80.6,80.6,80.6,19.1,19.1,19.1,10,10,10,30.00,29.83,18,18,18,0.00
2013-5-20,80.6,80.6,80.6,19.1,19.1,19.1,10,10,10,29.99,29.82,18,18,18,0.00
2013-5-21,83.7,81.7,78.4,21.4,20.0,17.4,10,10,10,30.06,29.86,33,22,33,0.00
2013-5-22,83.1,83.1,83.1,21.0,21.0,21.0,10,10,10,30.02,29.84,27,27,27,0.00
2013-5-23,83.1,81.1,67.1,57.0,24.5,9.2,70,15,10,30.19,29.90,40,27,40,0.51
2013-5-24,100.8,79.2,65.1,52.8,42.9,24.3,57,33,10,30.19,30.02,46,19,46,0.01
2013-5-25,96.8,83.3,65.8,54.5,42.5,31.3,62,31,10,30.24,30.01,27,12,30,0.00
2013-5-26,96.8,96.8,96.8,31.3,31.3,31.3,10,10,10,30.23,29.94,5,5,12,0.00
2013-5-27,115.5,89.4,70.9,59.4,45.7,26.4,67,29,10,30.04,29.81,32,17,32,0.00
2013-5-28,85.1,81.8,73.6,59.2,55.7,54.8,60,41,36,29.91,29.73,32,22,32,0.00
2013-5-29,100.4,87.2,72.1,55.9,37.3,18.2,56,22,10,29.84,29.72,33,19,33,0.01
2013-5-30,110.7,88.8,68.5,55.4,29.8,9.9,58,14,10,29.94,29.81,30,13,30,0.00
2013-5-31,110.7,89.7,68.7,56.6,36.3,16.7,63,20,10,29.98,29.81,31,13,31,0.00
2013-6-1,102.7,86.2,71.2,43.1,26.0,11.9,27,12,10,30.12,29.88,38,19,38,2.86
2013-6-2,97.9,85.1,71.6,32.3,24.9,14.7,19,11,10,30.20,29.96,34,20,34,0.01
2013-6-3,93.4,93.4,93.4,28.8,28.8,28.8,10,10,10,30.10,29.88,26,26,30,0.00
2013-6-4,96.8,93.5,93.4,31.2,28.9,28.8,10,10,10,29.97,29.84,26,25,30,0.00
2013-6-5,114.3,94.1,77.4,43.8,29.3,16.6,10,10,10,29.97,29.83,31,10,31,0.00
2013-6-6,86.4,86.4,86.4,23.4,23.4,23.4,10,10,10,30.13,29.94,23,23,23,0.00
2013-6-7,86.4,86.4,86.4,23.4,23.4,23.4,10,10,10,30.17,29.96,23,23,23,0.00
2013-6-8,86.4,86.4,86.4,23.4,23.4,23.4,10,10,10,30.10,29.81,23,23,23,0.00
2013-6-9,86.4,86.4,86.4,23.4,23.4,23.4,10,10,10,30.09,29.85,23,23,23,0.00
2013-6-10,86.4,86.4,86.4,23.4,23.4,23.4,10,10,10,30.12,30.00,23,23,23,0.00
2013-6-11,86.4,86.4,86.4,23.4,23.4,23.4,10,10,10,30.11,29.99,23,23,23,0.00
2013-6-12,86.4,86.4,86.4,23.4,23.4,23.4,10,10,10,30.12,30.00,23,23,23,0.00
2013-6-13,86.4,86.4,86.4,23.4,23.4,23.4,10,10,10,30.15,30.03,23,23,23,0.00
2013-6-14,86.4,86.4,86.4,23.4,23.4,23.4,10,10,10,30.13,30.00,23,23,23,0.00
2013-6-15,86.4,86.4,86.4,23.4,23.4,23.4,10,10,10,30.14,29.99,23,23,23,0.00
2013-6-16,86.4,86.4,86.4,23.4,23.4,23.4,10,10,10,30.12,30.01,23,23,23,0.00
2013-6-17,86.4,86.4,86.4,23.4,23.4,23.4,10,10,10,30.20,29.97,23,23,23,0.00
2013-6-18,86.4,86.4,86.4,23.4,23.4,23.4,10,10,10,30.21,30.00,23,23,23,0.00
2013-6-19,93.6,87.1,74.5,61.4,51.7,14.1,50,31,10,30.05,29.91,23,13,23,0.00
2013-6-20,93.6,93.6,93.6,56.6,56.6,56.6,29,29,29,30.18,29.93,9,9,9,0.00
2013-6-21,93.6,93.6,93.6,56.6,56.6,56.6,29,29,29,30.17,29.95,9,9,9,0.00
2013-6-22,93.6,93.6,93.6,56.6,56.6,56.6,29,29,29,30.06,29.90,9,9,9,0.00
2013-6-23,93.6,93.6,93.6,56.6,56.6,56.6,29,29,29,30.01,29.86,9,9,9,0.00
2013-6-24,93.6,93.6,93.6,56.6,56.6,56.6,29,29,29,30.04,29.92,9,9,9,0.00
2013-6-25,122.9,94.7,77.0,56.6,47.6,31.3,45,24,10,30.05,29.90,29,14,30,0.00
2013-6-26,110.7,98.1,78.1,59.3,47.5,32.4,52,23,10,30.04,29.93,24,8,24,0.00
2013-6-27,110.7,110.7,110.7,41.8,41.8,41.8,10,10,10,30.13,30.01,3,3,4,0.00
2013-6-28,110.7,110.7,110.7,41.8,41.8,41.8,10,10,10,30.21,30.03,3,3,4,0.00
2013-6-29,110.7,110.7,110.7,41.8,41.8,41.8,10,10,10,30.13,29.98,3,3,4,0.00
2013-6-30,110.7,110.7,110.7,41.8,41.8,41.8,10,10,10,30.17,30.00,3,3,4,0.00
2013-7-1,110.7,110.7,110.7,41.8,41.8,41.8,10,10,10,30.32,30.10,3,3,4,0.00
2013-7-2,110.7,110.7,110.7,41.8,41.8,41.8,10,10,10,30.31,30.16,3,3,4,0.00
2013-7-3,110.7,110.7,110.7,41.8,41.8,41.8,10,10,10,30.22,30.02,3,3,4,0.00
2013-7-4,110.7,110.7,110.7,41.8,41.8,41.8,10,10,10,30.08,29.95,3,3,4,0.00
2013-7-5,110.7,110.7,110.7,41.8,41.8,41.8,10,10,10,30.06,29.88,3,3,4,0.00
2013-7-6,110.7,110.7,110.7,41.8,41.8,41.8,10,10,10,30.03,29.88,3,3,4,0.00
2013-7-7,110.7,110.7,110.7,41.8,41.8,41.8,10,10,10,30.11,30.00,3,3,4,0.00
2013-7-8,110.7,110.7,110.7,41.8,41.8,41.8,10,10,10,30.20,30.08,3,3,4,0.00
2013-7-9,110.7,110.7,110.7,41.8,41.8,41.8,10,10,10,30.22,30.07,3,3,4,0.00
2013-7-10,110.7,110.7,110.7,41.8,41.8,41.8,10,10,10,30.20,30.02,3,3,4,0.00
2013-7-11,110.7,110.7,110.7,41.8,41.8,41.8,10,10,10,30.14,30.00,3,3,4,0.00
2013-7-12,110.7,110.7,110.7,41.8,41.8,41.8,10,10,10,30.10,29.98,3,3,4,0.00
2013-7-13,110.7,110.7,110.7,41.8,41.8,41.8,10,10,10,30.15,30.00,3,3,4,0.00
2013-7-14,110.7,110.7,110.7,41.8,41.8,41.8,10,10,10,30.10,29.90,3,3,4,0.00
2013-7-15,110.7,110.7,110.7,41.8,41.8,41.8,10,10,10,30.23,29.97,3,3,4,0.00
2013-7-16,110.7,110.7,110.7,41.8,41.8,41.8,10,10,10,30.29,30.19,3,3,4,0.00
2013-7-17,110.7,110.7,110.7,41.8,41.8,41.8,10,10,10,30.33,30.24,3,3,4,0.00
2013-7-18,110.7,110.7,110.7,41.8,41.8,41.8,10,10,10,30.31,30.17,3,3,4,0.00
2013-7-19,110.7,110.7,110.7,41.8,41.8,41.8,10,10,10,30.22,30.07,3,3,4,0.00
2013-7-20,110.7,110.7,110.7,41.8,41.8,41.8,10,10,10,30.14,29.99,3,3,4,0.00
2013-7-21,110.7,110.7,110.7,41.8,41.8,41.8,10,10,10,30.09,29.96,3,3,4,0.00
2013-7-22,110.7,110.7,110.7,41.8,41.8,41.8,10,10,10,30.09,29.97,3,3,4,0.00
2013-7-23,110.7,110.7,110.7,41.8,41.8,41.8,10,10,10,30.08,29.96,3,3,4,0.00
2013-7-24,110.7,110.7,110.7,41.8,41.8,41.8,10,10,10,30.09,30.00,3,3,4,0.00